createdAt,value
2022-12-29T00:00:35.923Z,17.80
2022-12-29T00:03:21.661Z,12.50
2022-12-29T00:05:57.088Z,16.30
2022-12-29T00:08:41.275Z,17.70
2022-12-29T00:11:13.352Z,25.80
2022-12-29T00:14:08.463Z,25.40
2022-12-29T00:16:38.916Z,25.20
2022-12-29T00:19:07.773Z,30.10
2022-12-29T00:21:55.206Z,27.70
2022-12-29T00:24:27.298Z,25.80
2022-12-29T00:27:17.741Z,24.50
2022-12-29T00:30:06.111Z,23.00
2022-12-29T00:32:55.136Z,15.70
2022-12-29T00:35:33.287Z,17.10
2022-12-29T00:38:24.917Z,16.90
2022-12-29T00:41:13.046Z,19.80
2022-12-29T00:44:02.324Z,17.30
2022-12-29T00:46:31.630Z,15.70
2022-12-29T00:49:20.979Z,15.10
2022-12-29T00:51:51.112Z,33.40
2022-12-29T00:54:20.717Z,18.50
2022-12-29T00:56:50.622Z,19.90
2022-12-29T00:59:21.335Z,17.20
2022-12-29T01:01:50.660Z,18.70
2022-12-29T01:04:21.100Z,13.10
2022-12-29T01:06:51.926Z,12.10
2022-12-29T01:09:39.690Z,16.80
2022-12-29T01:12:09.994Z,12.30
2022-12-29T01:14:39.714Z,11.70
2022-12-29T01:17:08.987Z,12.90
2022-12-29T01:19:38.188Z,10.50
2022-12-29T01:22:07.820Z,14.80
2022-12-29T01:24:37.528Z,14.30
2022-12-29T01:27:07.030Z,13.00
2022-12-29T01:29:36.300Z,13.00
2022-12-29T01:32:08.016Z,14.70
2022-12-29T01:34:36.853Z,19.70
2022-12-29T01:37:06.269Z,29.10
2022-12-29T01:39:37.003Z,26.00
2022-12-29T01:42:06.698Z,29.30
2022-12-29T01:44:50.534Z,24.60
2022-12-29T01:47:45.145Z,19.00
2022-12-29T01:50:20.695Z,19.60
2022-12-29T01:53:15.480Z,14.90
2022-12-29T01:55:50.410Z,15.30
2022-12-29T01:58:23.074Z,10.30
2022-12-29T02:00:52.340Z,11.60
2022-12-29T02:03:24.794Z,15.60
2022-12-29T02:06:13.135Z,19.40
2022-12-29T02:08:43.139Z,19.70
2022-12-29T02:11:13.527Z,14.70
2022-12-29T02:16:47.935Z,17.70
2022-12-29T02:19:43.835Z,13.80
2022-12-29T02:22:51.679Z,12.90
2022-12-29T02:25:50.206Z,12.70
2022-12-29T02:28:41.624Z,13.20
2022-12-29T02:31:39.359Z,8.60
2022-12-29T02:34:42.885Z,13.40
2022-12-29T02:37:22.238Z,18.00
2022-12-29T02:39:57.784Z,18.90
2022-12-29T02:42:27.442Z,22.50
2022-12-29T02:45:04.311Z,15.50
2022-12-29T02:47:59.187Z,13.50
2022-12-29T02:50:38.928Z,18.60
2022-12-29T02:53:15.948Z,21.10
2022-12-29T02:55:53.654Z,16.00
2022-12-29T02:58:24.742Z,13.10
2022-12-29T03:01:00.397Z,14.00
2022-12-29T03:03:51.233Z,12.40
2022-12-29T03:06:53.877Z,16.70
2022-12-29T03:09:43.104Z,16.70
2022-12-29T03:12:17.888Z,13.60
2022-12-29T03:15:22.379Z,9.80
2022-12-29T03:18:07.337Z,16.60
2022-12-29T03:20:45.673Z,17.00
2022-12-29T03:23:17.612Z,15.20
2022-12-29T03:25:56.129Z,16.50
2022-12-29T03:28:39.213Z,19.20
2022-12-29T03:31:12.124Z,15.40
2022-12-29T03:33:46.618Z,13.30
2022-12-29T03:36:25.396Z,13.70
2022-12-29T03:39:13.217Z,10.90
2022-12-29T03:41:46.118Z,11.70
2022-12-29T03:44:15.755Z,12.20
2022-12-29T03:46:45.535Z,11.30
2022-12-29T03:49:15.761Z,12.50
2022-12-29T03:51:45.788Z,13.80
2022-12-29T03:54:15.761Z,12.40
2022-12-29T03:56:46.447Z,11.00
2022-12-29T03:59:17.447Z,14.70
2022-12-29T04:01:47.977Z,14.20
2022-12-29T04:04:17.405Z,16.00
2022-12-29T04:06:48.322Z,13.50
2022-12-29T04:09:18.562Z,13.00
2022-12-29T04:11:51.288Z,18.10
2022-12-29T04:14:21.891Z,17.60
2022-12-29T04:16:51.818Z,16.40
2022-12-29T04:21:53.745Z,15.70
2022-12-29T04:24:23.888Z,12.60
2022-12-29T04:26:53.708Z,17.20
2022-12-29T04:29:36.713Z,16.10
2022-12-29T04:32:36.199Z,23.40
2022-12-29T04:35:06.992Z,14.60
2022-12-29T04:37:37.082Z,18.80
2022-12-29T04:40:07.257Z,10.90
2022-12-29T04:42:37.544Z,9.40
2022-12-29T04:45:08.115Z,13.60
2022-12-29T04:47:54.434Z,13.20
2022-12-29T04:50:33.867Z,11.20
2022-12-29T04:53:11.876Z,16.90
2022-12-29T04:55:40.664Z,15.60
2022-12-29T04:58:10.966Z,12.60
2022-12-29T05:00:40.402Z,12.90
2022-12-29T05:03:10.150Z,13.60
2022-12-29T05:05:43.125Z,15.70
2022-12-29T05:08:12.776Z,12.40
2022-12-29T05:10:46.894Z,12.00
2022-12-29T05:13:16.818Z,18.30
2022-12-29T05:15:51.319Z,23.20
2022-12-29T05:18:21.246Z,20.90
2022-12-29T05:20:52.499Z,20.50
2022-12-29T05:23:24.156Z,15.60
2022-12-29T05:26:03.887Z,23.30
2022-12-29T05:28:52.036Z,20.90
2022-12-29T05:33:51.482Z,13.90
2022-12-29T05:36:20.972Z,17.50
2022-12-29T05:38:53.533Z,21.40
2022-12-29T05:41:23.578Z,29.50
2022-12-29T05:44:12.950Z,20.40
2022-12-29T05:46:49.073Z,14.70
2022-12-29T05:49:38.857Z,18.80
2022-12-29T05:52:16.348Z,12.40
2022-12-29T05:54:46.366Z,22.70
2022-12-29T05:57:18.779Z,20.30
2022-12-29T05:59:52.760Z,27.90
2022-12-29T06:02:23.206Z,17.60
2022-12-29T06:04:52.575Z,23.40
2022-12-29T06:07:21.725Z,21.60
2022-12-29T06:09:50.964Z,18.40
2022-12-29T06:12:20.112Z,21.40
2022-12-29T06:14:52.024Z,17.10
2022-12-29T06:17:21.227Z,35.90
2022-12-29T06:19:51.032Z,41.30
2022-12-29T06:22:20.758Z,26.10
2022-12-29T06:24:50.040Z,30.20
2022-12-29T06:27:19.157Z,31.30
2022-12-29T06:29:50.998Z,21.80
2022-12-29T06:34:52.975Z,26.80
2022-12-29T06:37:21.883Z,20.70
2022-12-29T06:39:50.548Z,17.70
2022-12-29T06:42:19.538Z,22.30
2022-12-29T06:45:11.685Z,19.60
2022-12-29T06:47:40.257Z,26.60
2022-12-29T06:50:09.978Z,30.10
2022-12-29T06:52:38.756Z,164.30
2022-12-29T06:55:08.037Z,104.50
2022-12-29T06:57:36.845Z,47.70
2022-12-29T07:00:06.985Z,43.10
2022-12-29T07:02:35.902Z,29.70
2022-12-29T07:05:05.115Z,28.60
2022-12-29T07:07:33.742Z,29.00
2022-12-29T07:10:02.426Z,24.80
2022-12-29T07:12:31.549Z,26.40
2022-12-29T07:15:00.210Z,33.50
2022-12-29T07:17:28.899Z,42.90
2022-12-29T07:19:57.710Z,57.40
2022-12-29T07:22:26.669Z,66.10
2022-12-29T07:24:55.351Z,71.90
2022-12-29T07:27:24.142Z,81.60
2022-12-29T07:29:52.732Z,79.00
2022-12-29T07:32:21.665Z,81.90
2022-12-29T07:34:51.425Z,79.00
2022-12-29T07:37:20.212Z,73.10
2022-12-29T07:39:48.695Z,62.80
2022-12-29T07:42:17.696Z,48.80
2022-12-29T07:44:52.852Z,42.00
2022-12-29T07:47:32.263Z,20.30
2022-12-29T07:50:00.963Z,20.90
2022-12-29T07:52:30.050Z,22.50
2022-12-29T07:54:59.052Z,21.60
2022-12-29T07:57:31.816Z,26.00
2022-12-29T08:00:01.218Z,23.30
2022-12-29T08:02:31.066Z,23.30
2022-12-29T08:05:00.160Z,24.00
2022-12-29T08:07:28.921Z,33.20
2022-12-29T08:09:58.114Z,26.90
2022-12-29T08:12:26.694Z,30.90
2022-12-29T08:14:55.376Z,24.30
2022-12-29T08:17:23.965Z,26.00
2022-12-29T08:19:52.647Z,22.60
2022-12-29T08:22:21.434Z,21.10
2022-12-29T08:24:50.336Z,31.90
2022-12-29T08:27:20.929Z,39.40
2022-12-29T08:29:50.150Z,37.60
2022-12-29T08:32:19.149Z,30.20
2022-12-29T08:34:47.929Z,26.10
2022-12-29T08:37:16.510Z,23.60
2022-12-29T08:39:45.095Z,25.80
2022-12-29T08:42:13.688Z,19.60
2022-12-29T08:44:42.364Z,20.70
2022-12-29T08:47:12.694Z,21.60
2022-12-29T08:49:41.375Z,20.90
2022-12-29T08:52:09.967Z,21.40
2022-12-29T08:54:38.543Z,32.40
2022-12-29T08:57:08.265Z,28.60
2022-12-29T08:59:42.679Z,24.40
2022-12-29T09:02:17.458Z,26.50
2022-12-29T09:04:49.221Z,24.30
2022-12-29T09:07:18.353Z,21.80
2022-12-29T09:09:46.936Z,19.40
2022-12-29T09:12:15.620Z,18.30
2022-12-29T09:14:45.536Z,16.30
2022-12-29T09:17:32.866Z,15.90
2022-12-29T09:20:01.745Z,14.90
2022-12-29T09:22:30.553Z,13.70
2022-12-29T09:24:59.136Z,11.40
2022-12-29T09:27:27.824Z,12.60
2022-12-29T09:29:56.494Z,12.90
2022-12-29T09:32:28.566Z,9.50
2022-12-29T09:34:59.925Z,10.40
2022-12-29T09:37:29.108Z,10.60
2022-12-29T09:39:57.685Z,10.10
2022-12-29T09:42:39.478Z,11.60
2022-12-29T09:45:34.589Z,10.80
2022-12-29T09:48:09.782Z,11.20
2022-12-29T09:50:40.305Z,10.00
2022-12-29T09:55:57.463Z,10.30
2022-12-29T09:58:36.729Z,9.60
2022-12-29T10:01:09.100Z,9.10
2022-12-29T10:03:49.437Z,11.80
2022-12-29T10:06:32.994Z,9.30
2022-12-29T10:09:24.119Z,9.60
2022-12-29T10:12:07.729Z,11.60
2022-12-29T10:14:57.932Z,9.70
2022-12-29T10:17:41.672Z,11.30
2022-12-29T10:20:26.221Z,12.30
2022-12-29T10:23:13.946Z,11.00
2022-12-29T10:25:45.114Z,11.50
2022-12-29T10:28:25.224Z,11.20
2022-12-29T10:30:55.677Z,12.30
2022-12-29T10:33:31.626Z,12.90
2022-12-29T10:36:00.618Z,14.80
2022-12-29T10:38:37.295Z,14.00
2022-12-29T10:41:47.148Z,13.00
2022-12-29T10:44:18.940Z,11.60
2022-12-29T10:46:59.683Z,13.10
2022-12-29T10:49:31.049Z,16.50
2022-12-29T10:52:03.717Z,12.40
2022-12-29T10:54:43.756Z,13.60
2022-12-29T10:57:22.057Z,13.00
2022-12-29T10:59:50.537Z,13.50
2022-12-29T11:02:31.721Z,14.50
2022-12-29T11:05:11.982Z,11.10
2022-12-29T11:07:41.181Z,10.70
2022-12-29T11:10:23.232Z,12.10
2022-12-29T11:13:04.503Z,9.10
2022-12-29T11:15:44.814Z,10.90
2022-12-29T11:18:42.472Z,9.60
2022-12-29T11:21:28.568Z,10.10
2022-12-29T11:24:00.756Z,9.50
2022-12-29T11:26:34.475Z,8.70
2022-12-29T11:29:09.774Z,9.70
2022-12-29T11:31:43.241Z,9.80
2022-12-29T11:34:24.866Z,9.40
2022-12-29T11:37:00.427Z,9.40
2022-12-29T11:39:34.220Z,9.70
2022-12-29T11:42:04.337Z,8.00
2022-12-29T11:44:39.579Z,9.30
2022-12-29T11:47:13.178Z,8.40
2022-12-29T11:49:42.089Z,7.70
2022-12-29T11:52:10.967Z,9.30
2022-12-29T11:54:40.058Z,9.80
2022-12-29T11:57:17.704Z,9.40
2022-12-29T11:59:57.312Z,10.90
2022-12-29T12:05:14.221Z,10.40
2022-12-29T12:08:03.702Z,9.50
2022-12-29T12:10:40.092Z,10.40
2022-12-29T12:13:17.959Z,10.20
2022-12-29T12:15:58.292Z,9.30
2022-12-29T12:18:41.748Z,10.30
2022-12-29T12:21:27.027Z,9.00
2022-12-29T12:24:11.075Z,9.00
2022-12-29T12:26:59.019Z,15.40
2022-12-29T12:29:38.546Z,19.80
2022-12-29T12:32:18.699Z,9.30
2022-12-29T12:34:50.360Z,7.90
2022-12-29T12:38:07.102Z,8.50
2022-12-29T12:40:51.116Z,11.40
2022-12-29T12:43:36.591Z,11.30
2022-12-29T12:46:14.339Z,14.40
2022-12-29T12:49:01.610Z,15.30
2022-12-29T12:51:42.688Z,12.50
2022-12-29T12:54:22.226Z,17.70
2022-12-29T12:56:53.580Z,13.70
2022-12-29T12:59:51.489Z,11.90
2022-12-29T13:02:33.973Z,16.30
2022-12-29T13:05:11.255Z,18.40
2022-12-29T13:08:01.749Z,20.50
2022-12-29T13:10:53.209Z,12.90
2022-12-29T13:13:43.881Z,17.40
2022-12-29T13:16:34.181Z,20.20
2022-12-29T13:19:35.818Z,20.10
2022-12-29T13:22:25.799Z,19.80
2022-12-29T13:25:09.836Z,20.70
2022-12-29T13:27:41.399Z,20.20
2022-12-29T13:30:22.494Z,18.00
2022-12-29T13:32:56.989Z,18.40
2022-12-29T13:35:44.006Z,35.10
2022-12-29T13:38:20.901Z,20.70
2022-12-29T13:40:58.231Z,16.40
2022-12-29T13:43:31.254Z,16.60
2022-12-29T13:46:10.639Z,24.10
2022-12-29T13:48:54.848Z,19.50
2022-12-29T13:51:28.076Z,17.30
2022-12-29T13:54:41.167Z,28.20
2022-12-29T13:57:27.401Z,41.10
2022-12-29T14:00:05.362Z,25.10
2022-12-29T14:02:46.882Z,22.20
2022-12-29T14:05:21.841Z,16.00
2022-12-29T14:08:00.355Z,16.90
2022-12-29T14:10:36.517Z,21.90
2022-12-29T14:13:16.009Z,33.20
2022-12-29T14:15:59.181Z,31.70
2022-12-29T14:18:31.068Z,22.00
2022-12-29T14:21:05.103Z,19.20
2022-12-29T14:23:44.234Z,21.30
2022-12-29T14:26:17.232Z,19.90
2022-12-29T14:28:49.675Z,17.90
2022-12-29T14:31:18.197Z,16.70
2022-12-29T14:34:08.561Z,16.60
2022-12-29T14:36:41.197Z,16.60
2022-12-29T14:39:40.757Z,18.70
2022-12-29T14:42:12.304Z,17.20
2022-12-29T14:44:54.708Z,18.00
2022-12-29T14:47:32.307Z,16.90
2022-12-29T14:50:08.987Z,16.00
2022-12-29T14:53:02.431Z,18.60
2022-12-29T14:55:54.911Z,22.70
2022-12-29T15:01:01.940Z,22.20
2022-12-29T15:03:35.955Z,25.30
2022-12-29T15:06:14.521Z,29.50
2022-12-29T15:09:01.017Z,24.20
2022-12-29T15:11:41.781Z,30.50
2022-12-29T15:14:35.599Z,26.10
2022-12-29T15:17:23.801Z,23.30
2022-12-29T15:19:53.375Z,30.60
2022-12-29T15:22:23.248Z,24.80
2022-12-29T15:24:54.182Z,28.20
2022-12-29T15:27:26.214Z,36.10
2022-12-29T15:30:05.342Z,35.70
2022-12-29T15:32:44.390Z,44.90
2022-12-29T15:35:50.547Z,35.00
2022-12-29T15:38:32.163Z,24.60
2022-12-29T15:41:08.996Z,46.40
2022-12-29T15:43:54.804Z,33.00
2022-12-29T15:46:23.623Z,39.00
2022-12-29T15:48:52.477Z,26.20
2022-12-29T15:51:32.184Z,29.10
2022-12-29T15:54:00.800Z,29.40
2022-12-29T15:56:31.509Z,41.30
2022-12-29T15:59:01.255Z,38.00
2022-12-29T16:01:34.297Z,49.90
2022-12-29T16:04:09.063Z,42.00
2022-12-29T16:06:55.050Z,49.30
2022-12-29T16:09:37.280Z,39.90
2022-12-29T16:12:15.769Z,45.30
2022-12-29T16:15:16.198Z,37.80
2022-12-29T16:17:51.805Z,42.30
2022-12-29T16:20:23.222Z,28.10
2022-12-29T16:22:56.695Z,30.30
2022-12-29T16:25:35.698Z,36.40
2022-12-29T16:28:21.405Z,30.70
2022-12-29T16:31:04.447Z,35.80
2022-12-29T16:33:39.772Z,36.00
2022-12-29T16:36:34.986Z,63.90
2022-12-29T16:39:12.884Z,58.30
2022-12-29T16:41:41.465Z,50.40
2022-12-29T16:44:17.722Z,54.50
2022-12-29T16:47:04.647Z,41.80
2022-12-29T16:49:36.113Z,32.20
2022-12-29T16:52:34.376Z,39.00
2022-12-29T16:55:03.611Z,45.90
2022-12-29T16:57:37.678Z,35.80
2022-12-29T17:00:09.377Z,38.90
2022-12-29T17:02:46.230Z,44.40
2022-12-29T17:05:17.047Z,37.60
2022-12-29T17:07:46.556Z,68.00
2022-12-29T17:10:16.053Z,62.50
2022-12-29T17:12:46.909Z,66.60
2022-12-29T17:15:17.729Z,54.60
2022-12-29T17:17:48.246Z,56.30
2022-12-29T17:20:21.753Z,40.80
2022-12-29T17:22:53.197Z,44.60
2022-12-29T17:25:29.843Z,49.00
2022-12-29T17:28:15.457Z,49.50
2022-12-29T17:30:44.574Z,41.30
2022-12-29T17:33:18.781Z,39.00
2022-12-29T17:35:53.250Z,50.40
2022-12-29T17:38:29.974Z,62.00
2022-12-29T17:40:59.574Z,60.90
2022-12-29T17:43:34.747Z,80.10
2022-12-29T17:46:08.480Z,117.30
2022-12-29T17:48:37.003Z,69.80
2022-12-29T17:51:05.781Z,50.60
2022-12-29T17:53:34.366Z,40.40
2022-12-29T17:56:03.498Z,41.80
2022-12-29T17:58:33.588Z,43.80
2022-12-29T18:03:35.185Z,48.10
2022-12-29T18:06:06.907Z,41.20
2022-12-29T18:08:36.952Z,35.70
2022-12-29T18:11:20.665Z,34.70
2022-12-29T18:13:49.653Z,35.90
2022-12-29T18:16:18.271Z,30.90
2022-12-29T18:18:47.022Z,19.70
2022-12-29T18:21:21.240Z,45.90
2022-12-29T18:23:49.930Z,55.80
2022-12-29T18:26:24.000Z,58.70
2022-12-29T18:28:57.378Z,99.90
2022-12-29T18:31:27.324Z,66.00
2022-12-29T18:33:58.325Z,75.50
2022-12-29T18:36:27.175Z,74.00
2022-12-29T18:38:55.765Z,73.90
2022-12-29T18:41:30.086Z,50.80
2022-12-29T18:44:00.039Z,63.20
2022-12-29T18:46:29.170Z,56.00
2022-12-29T18:48:59.208Z,41.70
2022-12-29T18:51:27.892Z,48.20
2022-12-29T18:53:56.788Z,52.00
2022-12-29T18:56:25.470Z,56.10
2022-12-29T18:58:54.257Z,76.10
2022-12-29T19:01:26.082Z,85.60
2022-12-29T19:03:55.323Z,67.70
2022-12-29T19:06:24.209Z,79.90
2022-12-29T19:08:52.691Z,66.40
2022-12-29T19:11:21.675Z,72.20
2022-12-29T19:13:50.268Z,54.40
2022-12-29T19:16:21.750Z,44.50
2022-12-29T19:19:07.829Z,48.60
2022-12-29T19:21:38.544Z,56.20
2022-12-29T19:24:07.330Z,56.60
2022-12-29T19:26:39.392Z,55.60
2022-12-29T19:29:14.630Z,57.90
2022-12-29T19:31:43.440Z,49.90
2022-12-29T19:34:16.937Z,47.00
2022-12-29T19:36:46.354Z,43.00
2022-12-29T19:39:15.013Z,39.60
2022-12-29T19:41:43.689Z,36.50
2022-12-29T19:44:12.376Z,34.60
2022-12-29T19:46:41.215Z,42.40
2022-12-29T19:49:09.951Z,37.00
2022-12-29T19:51:39.060Z,32.00
2022-12-29T19:54:07.732Z,60.00
2022-12-29T19:56:36.524Z,46.50
2022-12-29T19:59:05.306Z,70.50
2022-12-29T20:01:34.411Z,57.60
2022-12-29T20:04:04.420Z,63.70
2022-12-29T20:06:33.103Z,57.10
2022-12-29T20:09:03.244Z,48.90
2022-12-29T20:11:31.817Z,47.80
2022-12-29T20:14:00.490Z,66.50
2022-12-29T20:16:30.136Z,66.70
2022-12-29T20:18:59.094Z,57.50
2022-12-29T20:21:27.780Z,62.70
2022-12-29T20:23:56.786Z,64.20
2022-12-29T20:26:27.935Z,68.60
2022-12-29T20:28:58.959Z,63.60
2022-12-29T20:31:37.157Z,67.60
2022-12-29T20:34:09.871Z,80.50
2022-12-29T20:36:42.346Z,75.40
2022-12-29T20:39:16.833Z,66.00
2022-12-29T20:41:46.242Z,60.30
2022-12-29T20:44:14.839Z,51.60
2022-12-29T20:46:44.379Z,50.50
2022-12-29T20:49:13.528Z,49.90
2022-12-29T20:54:38.772Z,53.90
2022-12-29T20:57:08.691Z,51.10
2022-12-29T20:59:37.763Z,50.90
2022-12-29T21:02:07.126Z,42.50
2022-12-29T21:05:12.783Z,37.50
2022-12-29T21:07:24.712Z,34.50
2022-12-29T21:09:53.495Z,28.30
2022-12-29T21:12:22.495Z,29.30
2022-12-29T21:14:50.967Z,27.60
2022-12-29T21:17:19.761Z,43.70
2022-12-29T21:19:49.062Z,45.40
2022-12-29T21:22:17.857Z,65.30
2022-12-29T21:24:46.535Z,62.80
2022-12-29T21:27:15.110Z,64.20
2022-12-29T21:29:43.799Z,52.40
2022-12-29T21:32:12.899Z,47.40
2022-12-29T21:34:42.703Z,40.40
2022-12-29T21:37:11.300Z,39.50
2022-12-29T21:39:40.184Z,46.00
2022-12-29T21:42:08.963Z,41.10
2022-12-29T21:44:56.189Z,39.90
2022-12-29T21:47:24.980Z,27.20
2022-12-29T21:49:53.674Z,24.10
2022-12-29T21:52:22.649Z,23.00
2022-12-29T21:55:05.392Z,28.30
2022-12-29T21:57:52.696Z,31.80
2022-12-29T22:00:40.020Z,35.80
2022-12-29T22:03:27.459Z,39.30
2022-12-29T22:06:14.864Z,39.90
2022-12-29T22:09:02.486Z,43.10
2022-12-29T22:11:49.606Z,37.20
2022-12-29T22:14:18.298Z,27.40
2022-12-29T22:16:46.978Z,22.60
2022-12-29T22:19:16.289Z,25.50
2022-12-29T22:21:44.868Z,23.60
2022-12-29T22:24:13.540Z,23.50
2022-12-29T22:26:42.238Z,26.70
2022-12-29T22:29:11.042Z,24.30
2022-12-29T22:31:39.862Z,23.00
2022-12-29T22:34:08.605Z,20.90
2022-12-29T22:36:37.288Z,17.90
2022-12-29T22:39:05.969Z,17.60
2022-12-29T22:41:34.549Z,15.40
2022-12-29T22:44:03.338Z,16.00
2022-12-29T22:46:32.122Z,13.60
2022-12-29T22:49:01.117Z,14.20
2022-12-29T22:51:29.705Z,16.70
2022-12-29T22:53:58.498Z,29.60
2022-12-29T22:56:27.287Z,34.10
2022-12-29T22:58:56.277Z,42.10
2022-12-29T23:01:25.139Z,30.90
2022-12-29T23:04:01.053Z,38.10
2022-12-29T23:06:40.453Z,76.10
2022-12-29T23:09:15.591Z,71.00
2022-12-29T23:11:44.888Z,54.30
2022-12-29T23:14:14.289Z,64.80
2022-12-29T23:16:43.631Z,46.70
2022-12-29T23:19:14.133Z,45.10
2022-12-29T23:21:43.316Z,42.80
2022-12-29T23:24:13.997Z,45.10
2022-12-29T23:26:45.501Z,33.20
2022-12-29T23:29:17.344Z,31.10
2022-12-29T23:31:47.135Z,27.60
2022-12-29T23:34:17.301Z,25.80
2022-12-29T23:36:45.994Z,21.50
2022-12-29T23:39:21.013Z,59.60
2022-12-29T23:41:49.807Z,47.80
2022-12-29T23:44:19.219Z,38.70
2022-12-29T23:46:48.062Z,66.00
2022-12-29T23:49:17.322Z,63.00
2022-12-29T23:51:46.191Z,66.50
2022-12-29T23:54:15.605Z,53.20
2022-12-29T23:56:46.327Z,46.60
2022-12-29T23:59:15.928Z,52.20
